createdAt,value
2023-03-27T00:01:24.109Z,96133.19
2023-03-27T00:03:51.885Z,96124.34
2023-03-27T00:06:20.412Z,96116.84
2023-03-27T00:08:49.306Z,96115.25
2023-03-27T00:11:17.062Z,96117.94
2023-03-27T00:13:50.369Z,96111.50
2023-03-27T00:16:22.888Z,96113.91
2023-03-27T00:18:49.662Z,96103.75
2023-03-27T00:21:16.681Z,96095.97
2023-03-27T00:23:43.675Z,96104.56
2023-03-27T00:26:12.136Z,96100.03
2023-03-27T00:28:39.321Z,96094.41
2023-03-27T00:31:11.734Z,96097.06
2023-03-27T00:33:38.827Z,96103.47
2023-03-27T00:36:06.329Z,96078.59
2023-03-27T00:38:34.246Z,96082.31
2023-03-27T00:41:01.485Z,96072.72
2023-03-27T00:43:36.044Z,96067.63
2023-03-27T00:46:31.792Z,96068.69
2023-03-27T00:49:03.994Z,96066.56
2023-03-27T00:51:32.133Z,96062.81
2023-03-27T00:54:00.036Z,96051.31
2023-03-27T00:56:27.069Z,96062.28
2023-03-27T00:59:02.254Z,96055.06
2023-03-27T01:01:31.453Z,96041.97
2023-03-27T01:04:04.482Z,96033.94
2023-03-27T01:06:32.049Z,96021.66
2023-03-27T01:08:58.945Z,96022.69
2023-03-27T01:11:51.722Z,96025.63
2023-03-27T01:14:26.699Z,96008.78
2023-03-27T01:17:26.052Z,96013.34
2023-03-27T01:20:21.050Z,96002.38
2023-03-27T01:23:13.742Z,95989.81
2023-03-27T01:26:02.179Z,95986.34
2023-03-27T01:28:37.394Z,95980.19
2023-03-27T01:31:25.816Z,95971.38
2023-03-27T01:34:07.432Z,95978.03
2023-03-27T01:37:06.555Z,95960.41
2023-03-27T01:40:05.061Z,95939.81
2023-03-27T01:42:36.934Z,95952.38
2023-03-27T01:45:16.320Z,95942.75
2023-03-27T01:48:04.890Z,95924.56
2023-03-27T01:50:45.304Z,95908.75
2023-03-27T01:53:17.978Z,95900.22
2023-03-27T01:55:50.431Z,95897.97
2023-03-27T01:58:22.640Z,95889.03
2023-03-27T02:00:55.485Z,95891.28
2023-03-27T02:03:34.956Z,95874.06
2023-03-27T02:06:17.770Z,95881.94
2023-03-27T02:08:55.644Z,95883.41
2023-03-27T02:11:30.039Z,95891.84
2023-03-27T02:14:02.670Z,95903.59
2023-03-27T02:16:34.169Z,95894.53
2023-03-27T02:19:20.317Z,95908.41
2023-03-27T02:21:50.060Z,95896.63
2023-03-27T02:24:18.858Z,95899.31
2023-03-27T02:26:50.549Z,95890.72
2023-03-27T02:29:35.791Z,95882.84
2023-03-27T02:32:33.710Z,95877.34
2023-03-27T02:35:20.227Z,95871.25
2023-03-27T02:37:56.464Z,95869.75
2023-03-27T02:40:39.856Z,95872.53
2023-03-27T02:43:07.353Z,95869.78
2023-03-27T02:46:00.836Z,95875.03
2023-03-27T02:48:31.898Z,95861.25
2023-03-27T02:51:14.256Z,95844.97
2023-03-27T02:53:52.454Z,95834.41
2023-03-27T02:56:24.059Z,95830.25
2023-03-27T02:58:57.701Z,95818.91
2023-03-27T03:01:26.862Z,95817.69
2023-03-27T03:04:01.080Z,95805.53
2023-03-27T03:06:30.553Z,95804.06
2023-03-27T03:09:06.447Z,95796.81
2023-03-27T03:11:39.460Z,95773.84
2023-03-27T03:14:06.141Z,95776.94
2023-03-27T03:16:33.642Z,95769.09
2023-03-27T03:19:00.374Z,95771.88
2023-03-27T03:21:26.975Z,95764.50
2023-03-27T03:23:58.706Z,95750.00
2023-03-27T03:26:27.143Z,95742.63
2023-03-27T03:29:00.934Z,95748.00
2023-03-27T03:31:43.261Z,95756.78
2023-03-27T03:34:16.399Z,95761.47
2023-03-27T03:36:45.105Z,95759.09
2023-03-27T03:39:12.772Z,95771.72
2023-03-27T03:41:39.675Z,95759.66
2023-03-27T03:44:06.587Z,95752.97
2023-03-27T03:46:33.373Z,95749.59
2023-03-27T03:49:00.744Z,95746.09
2023-03-27T03:51:28.687Z,95744.63
2023-03-27T03:53:55.383Z,95742.72
2023-03-27T03:56:22.469Z,95736.13
2023-03-27T03:58:49.456Z,95741.00
2023-03-27T04:01:20.733Z,95740.78
2023-03-27T04:03:48.214Z,95744.00
2023-03-27T04:06:20.543Z,95723.66
2023-03-27T04:08:47.828Z,95712.22
2023-03-27T04:11:14.496Z,95723.25
2023-03-27T04:13:41.557Z,95711.59
2023-03-27T04:16:08.530Z,95727.22
2023-03-27T04:18:35.667Z,95719.03
2023-03-27T04:21:03.232Z,95718.16
2023-03-27T04:23:33.422Z,95708.50
2023-03-27T04:26:02.076Z,95699.16
2023-03-27T04:28:34.578Z,95699.56
2023-03-27T04:31:06.506Z,95706.63
2023-03-27T04:33:34.753Z,95706.25
2023-03-27T04:36:06.043Z,95699.28
2023-03-27T04:38:38.179Z,95699.28
2023-03-27T04:41:06.240Z,95701.47
2023-03-27T04:43:36.614Z,95707.56
2023-03-27T04:46:06.576Z,95715.50
2023-03-27T04:48:33.920Z,95716.94
2023-03-27T04:51:00.626Z,95716.81
2023-03-27T04:53:30.387Z,95706.06
2023-03-27T04:55:57.513Z,95715.72
2023-03-27T04:58:25.871Z,95693.78
2023-03-27T05:00:55.674Z,95712.16
2023-03-27T05:03:27.955Z,95699.00
2023-03-27T05:05:55.016Z,95686.66
2023-03-27T05:08:21.960Z,95702.19
2023-03-27T05:10:48.963Z,95699.56
2023-03-27T05:13:16.012Z,95693.59
2023-03-27T05:15:43.271Z,95679.88
2023-03-27T05:18:09.990Z,95688.75
2023-03-27T05:20:37.340Z,95687.53
2023-03-27T05:23:04.383Z,95684.84
2023-03-27T05:25:32.552Z,95694.41
2023-03-27T05:28:00.646Z,95700.78
2023-03-27T05:30:28.615Z,95698.28
2023-03-27T05:32:59.576Z,95682.13
2023-03-27T05:35:28.587Z,95686.13
2023-03-27T05:37:56.305Z,95697.78
2023-03-27T05:40:26.074Z,95681.63
2023-03-27T05:42:54.041Z,95673.47
2023-03-27T05:45:22.093Z,95666.84
2023-03-27T05:47:57.108Z,95662.56
2023-03-27T05:50:28.394Z,95662.16
2023-03-27T05:53:00.894Z,95662.03
2023-03-27T05:55:28.356Z,95667.63
2023-03-27T05:57:55.160Z,95671.28
2023-03-27T06:00:26.017Z,95659.63
2023-03-27T06:03:01.191Z,95663.59
2023-03-27T06:05:30.414Z,95658.41
2023-03-27T06:07:59.089Z,95665.75
2023-03-27T06:10:30.181Z,95657.38
2023-03-27T06:13:06.591Z,95638.41
2023-03-27T06:15:34.339Z,95614.94
2023-03-27T06:18:01.221Z,95604.84
2023-03-27T06:20:28.369Z,95605.50
2023-03-27T06:22:57.522Z,95627.75
2023-03-27T06:25:25.787Z,95593.19
2023-03-27T06:27:53.612Z,95586.59
2023-03-27T06:30:23.566Z,95582.56
2023-03-27T06:32:52.961Z,95581.00
2023-03-27T06:35:20.847Z,95581.06
2023-03-27T06:37:51.424Z,95573.31
2023-03-27T06:40:24.370Z,95578.41
2023-03-27T06:43:00.128Z,95576.06
2023-03-27T06:45:33.890Z,95573.41
2023-03-27T06:48:16.056Z,95572.94
2023-03-27T06:50:51.111Z,95558.19
2023-03-27T06:53:27.083Z,95570.75
2023-03-27T06:55:54.790Z,95576.78
2023-03-27T06:58:21.917Z,95589.66
2023-03-27T07:00:50.370Z,95608.88
2023-03-27T07:03:19.631Z,95627.13
2023-03-27T07:05:46.752Z,95624.59
2023-03-27T07:10:56.736Z,95636.06
2023-03-27T07:13:27.504Z,95620.66
2023-03-27T07:15:55.250Z,95621.31
2023-03-27T07:18:22.794Z,95635.94
2023-03-27T07:20:50.432Z,95639.41
2023-03-27T07:23:18.027Z,95641.50
2023-03-27T07:25:44.614Z,95643.69
2023-03-27T07:28:16.664Z,95645.28
2023-03-27T07:30:43.476Z,95615.25
2023-03-27T07:33:10.608Z,95592.25
2023-03-27T07:35:45.492Z,95599.84
2023-03-27T07:38:12.841Z,95606.53
2023-03-27T07:40:40.804Z,95596.47
2023-03-27T07:43:08.228Z,95593.44
2023-03-27T07:45:35.963Z,95594.22
2023-03-27T07:48:17.275Z,95593.09
2023-03-27T07:50:45.253Z,95580.38
2023-03-27T07:53:33.491Z,95594.66
2023-03-27T07:55:59.445Z,95573.06
2023-03-27T07:58:26.255Z,95568.47
2023-03-27T08:00:53.327Z,95574.50
2023-03-27T08:03:26.287Z,95562.13
2023-03-27T08:05:55.986Z,95550.06
2023-03-27T08:08:23.357Z,95536.09
2023-03-27T08:10:52.107Z,95524.34
2023-03-27T08:13:19.142Z,95518.00
2023-03-27T08:15:45.763Z,95511.66
2023-03-27T08:18:13.029Z,95489.44
2023-03-27T08:20:39.798Z,95483.13
2023-03-27T08:23:06.646Z,95491.06
2023-03-27T08:25:34.135Z,95513.28
2023-03-27T08:28:02.701Z,95520.59
2023-03-27T08:30:29.849Z,95509.66
2023-03-27T08:32:57.164Z,95516.50
2023-03-27T08:35:23.870Z,95497.75
2023-03-27T08:37:50.640Z,95501.72
2023-03-27T08:40:21.721Z,95488.06
2023-03-27T08:42:52.613Z,95493.47
2023-03-27T08:45:40.702Z,95489.16
2023-03-27T08:48:16.414Z,95488.81
2023-03-27T08:50:57.028Z,95467.84
2023-03-27T08:53:23.596Z,95467.00
2023-03-27T08:55:50.300Z,95467.16
2023-03-27T08:58:20.112Z,95462.22
2023-03-27T09:00:57.510Z,95466.63
2023-03-27T09:03:29.991Z,95468.25
2023-03-27T09:06:00.467Z,95462.00
2023-03-27T09:08:43.590Z,95454.34
2023-03-27T09:11:27.942Z,95449.47
2023-03-27T09:13:55.051Z,95443.72
2023-03-27T09:16:30.778Z,95440.06
2023-03-27T09:19:15.874Z,95441.00
2023-03-27T09:21:57.929Z,95432.69
2023-03-27T09:24:36.890Z,95424.56
2023-03-27T09:27:23.812Z,95427.56
2023-03-27T09:30:18.843Z,95419.59
2023-03-27T09:32:52.675Z,95402.72
2023-03-27T09:35:21.144Z,95393.94
2023-03-27T09:37:54.176Z,95386.63
2023-03-27T09:40:38.349Z,95389.59
2023-03-27T09:43:09.591Z,95389.25
2023-03-27T09:45:39.284Z,95385.25
2023-03-27T09:48:14.265Z,95388.41
2023-03-27T09:50:47.394Z,95386.16
2023-03-27T09:53:18.363Z,95387.44
2023-03-27T09:56:14.446Z,95391.06
2023-03-27T09:58:44.650Z,95377.19
2023-03-27T10:01:34.630Z,95376.53
2023-03-27T10:04:08.727Z,95375.53
2023-03-27T10:06:47.460Z,95366.75
2023-03-27T10:09:32.508Z,95359.56
2023-03-27T10:12:03.298Z,95361.28
2023-03-27T10:14:30.897Z,95363.00
2023-03-27T10:16:58.270Z,95355.78
2023-03-27T10:19:29.516Z,95361.47
2023-03-27T10:22:00.181Z,95358.53
2023-03-27T10:24:33.898Z,95354.94
2023-03-27T10:27:05.103Z,95359.03
2023-03-27T10:29:35.599Z,95350.69
2023-03-27T10:32:04.394Z,95347.31
2023-03-27T10:34:37.819Z,95343.94
2023-03-27T10:37:19.573Z,95348.81
2023-03-27T10:39:56.106Z,95344.19
2023-03-27T10:42:31.653Z,95337.63
2023-03-27T10:44:59.707Z,95329.50
2023-03-27T10:47:34.463Z,95336.19
2023-03-27T10:50:23.025Z,95329.63
2023-03-27T10:52:52.992Z,95341.72
2023-03-27T10:55:44.884Z,95331.34
2023-03-27T10:58:24.428Z,95337.22
2023-03-27T11:01:15.226Z,95328.41
2023-03-27T11:03:53.580Z,95323.91
2023-03-27T11:06:23.236Z,95329.91
2023-03-27T11:08:53.875Z,95318.06
2023-03-27T11:11:28.444Z,95305.63
2023-03-27T11:14:02.329Z,95305.84
2023-03-27T11:16:35.614Z,95309.16
2023-03-27T11:19:11.635Z,95313.53
2023-03-27T11:21:50.694Z,95305.53
2023-03-27T11:24:29.863Z,95312.06
2023-03-27T11:27:21.285Z,95310.16
2023-03-27T11:30:04.789Z,95312.16
2023-03-27T11:32:43.517Z,95321.50
2023-03-27T11:35:36.521Z,95321.66
2023-03-27T11:38:12.728Z,95307.25
2023-03-27T11:40:44.976Z,95311.25
2023-03-27T11:43:17.067Z,95290.97
2023-03-27T11:46:09.967Z,95297.59
2023-03-27T11:48:52.323Z,95300.22
2023-03-27T11:51:24.914Z,95296.13
2023-03-27T11:54:19.853Z,95291.94
2023-03-27T11:56:55.539Z,95281.16
2023-03-27T11:59:31.173Z,95268.75
2023-03-27T12:02:24.490Z,95258.69
2023-03-27T12:04:54.693Z,95255.44
2023-03-27T12:07:35.324Z,95252.03
2023-03-27T12:10:32.754Z,95256.47
2023-03-27T12:13:24.299Z,95249.19
2023-03-27T12:16:20.345Z,95245.06
2023-03-27T12:19:21.209Z,95239.81
2023-03-27T12:22:24.443Z,95230.56
2023-03-27T12:25:15.913Z,95234.25
2023-03-27T12:28:07.433Z,95238.28
2023-03-27T12:31:01.053Z,95238.78
2023-03-27T12:33:29.723Z,95238.50
2023-03-27T12:36:01.180Z,95233.56
2023-03-27T12:38:43.070Z,95221.75
2023-03-27T12:41:13.766Z,95237.59
2023-03-27T12:43:46.315Z,95233.72
2023-03-27T12:46:26.474Z,95240.00
2023-03-27T12:49:13.845Z,95232.66
2023-03-27T12:52:05.260Z,95237.91
2023-03-27T12:54:38.961Z,95231.06
2023-03-27T12:57:25.118Z,95229.91
2023-03-27T12:59:57.916Z,95217.44
2023-03-27T13:02:52.657Z,95229.25
2023-03-27T13:05:27.351Z,95233.09
2023-03-27T13:08:03.888Z,95225.44
2023-03-27T13:10:49.425Z,95238.28
2023-03-27T13:13:40.590Z,95234.25
2023-03-27T13:16:23.255Z,95229.44
2023-03-27T13:19:20.214Z,95222.09
2023-03-27T13:22:12.109Z,95203.31
2023-03-27T13:25:04.383Z,95214.91
2023-03-27T13:28:19.085Z,95213.97
2023-03-27T13:30:55.744Z,95213.88
2023-03-27T13:33:31.770Z,95215.41
2023-03-27T13:35:58.789Z,95215.41
2023-03-27T13:38:49.439Z,95215.41
2023-03-27T13:41:43.924Z,95215.81
2023-03-27T13:44:16.678Z,95215.91
2023-03-27T13:46:50.041Z,95220.91
2023-03-27T13:49:32.601Z,95223.28
2023-03-27T13:52:27.659Z,95236.44
2023-03-27T13:55:17.457Z,95229.97
2023-03-27T13:58:05.502Z,95229.66
2023-03-27T14:01:07.991Z,95237.69
2023-03-27T14:03:41.088Z,95239.09
2023-03-27T14:06:14.405Z,95239.91
2023-03-27T14:08:54.323Z,95246.84
2023-03-27T14:11:46.074Z,95245.44
2023-03-27T14:14:46.318Z,95241.59
2023-03-27T14:17:24.314Z,95249.84
2023-03-27T14:20:19.151Z,95250.28
2023-03-27T14:22:53.546Z,95251.31
2023-03-27T14:25:30.436Z,95243.00
2023-03-27T14:27:57.433Z,95251.69
2023-03-27T14:30:26.885Z,95249.25
2023-03-27T14:32:56.765Z,95247.72
2023-03-27T14:35:33.325Z,95242.31
2023-03-27T14:38:01.971Z,95241.69
2023-03-27T14:40:48.550Z,95242.72
2023-03-27T14:43:17.559Z,95246.47
2023-03-27T14:45:44.977Z,95229.28
2023-03-27T14:48:26.163Z,95229.28
2023-03-27T14:50:55.531Z,95245.16
2023-03-27T14:53:29.716Z,95248.44
2023-03-27T14:56:00.424Z,95248.34
2023-03-27T14:58:27.797Z,95245.19
2023-03-27T15:00:59.546Z,95256.81
2023-03-27T15:03:30.979Z,95247.69
2023-03-27T15:06:06.024Z,95248.16
2023-03-27T15:08:39.643Z,95246.47
2023-03-27T15:11:11.495Z,95248.81
2023-03-27T15:13:38.243Z,95250.84
2023-03-27T15:16:08.115Z,95243.03
2023-03-27T15:18:49.662Z,95251.53
2023-03-27T15:21:49.392Z,95249.88
2023-03-27T15:24:23.307Z,95253.72
2023-03-27T15:26:52.039Z,95250.53
2023-03-27T15:29:32.632Z,95248.63
2023-03-27T15:32:01.479Z,95231.16
2023-03-27T15:34:34.554Z,95239.13
2023-03-27T15:37:05.797Z,95251.47
2023-03-27T15:39:34.402Z,95240.75
2023-03-27T15:42:14.100Z,95237.34
2023-03-27T15:44:42.867Z,95235.31
2023-03-27T15:47:25.499Z,95233.31
2023-03-27T15:50:22.559Z,95231.63
2023-03-27T15:52:55.133Z,95234.38
2023-03-27T15:55:42.445Z,95254.03
2023-03-27T15:58:27.385Z,95248.16
2023-03-27T16:01:00.108Z,95247.81
2023-03-27T16:03:29.986Z,95249.84
2023-03-27T16:05:58.675Z,95256.84
2023-03-27T16:08:36.917Z,95251.41
2023-03-27T16:11:06.359Z,95255.38
2023-03-27T16:13:42.155Z,95258.41
2023-03-27T16:16:34.032Z,95252.09
2023-03-27T16:19:11.475Z,95262.94
2023-03-27T16:21:38.142Z,95257.41
2023-03-27T16:24:04.990Z,95256.06
2023-03-27T16:26:32.505Z,95251.66
2023-03-27T16:29:04.945Z,95255.38
2023-03-27T16:31:31.926Z,95256.06
2023-03-27T16:33:59.150Z,95253.09
2023-03-27T16:36:30.142Z,95257.31
2023-03-27T16:38:57.052Z,95254.78
2023-03-27T16:41:23.950Z,95240.34
2023-03-27T16:43:50.803Z,95263.63
2023-03-27T16:46:24.918Z,95268.13
2023-03-27T16:48:52.004Z,95273.53
2023-03-27T16:51:20.120Z,95266.88
2023-03-27T16:53:46.933Z,95268.22
2023-03-27T16:56:13.861Z,95275.44
2023-03-27T16:58:40.769Z,95266.31
2023-03-27T17:01:08.779Z,95279.38
2023-03-27T17:03:38.350Z,95269.91
2023-03-27T17:06:08.097Z,95269.31
2023-03-27T17:08:36.789Z,95266.38
2023-03-27T17:11:08.564Z,95269.63
2023-03-27T17:13:36.814Z,95276.94
2023-03-27T17:16:05.484Z,95271.16
2023-03-27T17:18:32.581Z,95283.91
2023-03-27T17:20:59.645Z,95282.56
2023-03-27T17:23:26.488Z,95278.78
2023-03-27T17:25:53.212Z,95282.50
2023-03-27T17:28:20.079Z,95270.31
2023-03-27T17:31:01.020Z,95281.81
2023-03-27T17:33:30.682Z,95274.66
2023-03-27T17:35:58.026Z,95262.66
2023-03-27T17:38:25.241Z,95279.03
2023-03-27T17:40:52.319Z,95273.22
2023-03-27T17:43:19.499Z,95272.31
2023-03-27T17:45:46.217Z,95281.09
2023-03-27T17:48:12.956Z,95281.41
2023-03-27T17:50:41.912Z,95281.94
2023-03-27T17:53:08.803Z,95291.19
2023-03-27T17:55:38.639Z,95283.16
2023-03-27T17:58:09.940Z,95293.28
2023-03-27T18:00:39.302Z,95287.06
2023-03-27T18:03:06.686Z,95301.72
2023-03-27T18:05:41.005Z,95289.16
2023-03-27T18:08:09.596Z,95295.88
2023-03-27T18:10:37.139Z,95302.22
2023-03-27T18:13:05.281Z,95295.59
2023-03-27T18:15:31.995Z,95305.13
2023-03-27T18:17:58.741Z,95308.31
2023-03-27T18:20:25.590Z,95311.50
2023-03-27T18:22:52.260Z,95306.28
2023-03-27T18:25:18.900Z,95296.31
2023-03-27T18:27:46.105Z,95311.41
2023-03-27T18:30:15.663Z,95321.28
2023-03-27T18:32:44.557Z,95325.75
2023-03-27T18:35:16.395Z,95327.84
2023-03-27T18:37:45.016Z,95326.59
2023-03-27T18:40:15.429Z,95327.72
2023-03-27T18:42:46.110Z,95307.91
2023-03-27T18:45:15.400Z,95313.78
2023-03-27T18:47:43.494Z,95315.50
2023-03-27T18:50:12.702Z,95317.72
2023-03-27T18:52:39.879Z,95304.13
2023-03-27T18:55:08.544Z,95331.91
2023-03-27T18:57:36.490Z,95332.06
2023-03-27T19:00:06.721Z,95327.28
2023-03-27T19:02:35.572Z,95324.31
2023-03-27T19:05:04.109Z,95323.66
2023-03-27T19:07:31.329Z,95330.03
2023-03-27T19:09:57.998Z,95325.63
2023-03-27T19:12:25.301Z,95324.00
2023-03-27T19:14:52.096Z,95324.34
2023-03-27T19:17:19.989Z,95326.06
2023-03-27T19:19:46.917Z,95310.50
2023-03-27T19:22:13.758Z,95313.41
2023-03-27T19:24:41.298Z,95318.94
2023-03-27T19:27:23.717Z,95309.13
2023-03-27T19:29:51.904Z,95316.75
2023-03-27T19:32:18.688Z,95311.22
2023-03-27T19:34:46.038Z,95318.06
2023-03-27T19:37:12.988Z,95305.34
2023-03-27T19:39:39.848Z,95311.56
2023-03-27T19:42:06.467Z,95309.69
2023-03-27T19:44:33.478Z,95305.91
2023-03-27T19:47:02.799Z,95314.13
2023-03-27T19:49:29.482Z,95305.59
2023-03-27T19:51:56.298Z,95300.84
2023-03-27T19:54:23.330Z,95313.97
2023-03-27T19:56:50.129Z,95305.44
2023-03-27T19:59:29.836Z,95304.16
2023-03-27T20:01:57.890Z,95298.94
2023-03-27T20:04:26.136Z,95312.25
2023-03-27T20:06:53.889Z,95311.00
2023-03-27T20:09:21.070Z,95306.09
2023-03-27T20:11:47.871Z,95320.03
2023-03-27T20:14:14.619Z,95325.75
2023-03-27T20:16:41.243Z,95321.00
2023-03-27T20:19:09.402Z,95321.00
2023-03-27T20:21:39.037Z,95315.44
2023-03-27T20:24:10.146Z,95326.38
2023-03-27T20:26:41.515Z,95319.72
2023-03-27T20:29:11.308Z,95326.53
2023-03-27T20:31:39.027Z,95321.94
2023-03-27T20:34:06.916Z,95313.84
2023-03-27T20:36:35.058Z,95294.50
2023-03-27T20:39:04.746Z,95324.00
2023-03-27T20:41:31.375Z,95297.06
2023-03-27T20:43:58.987Z,95308.16
2023-03-27T20:46:30.539Z,95298.78
2023-03-27T20:48:57.648Z,95297.34
2023-03-27T20:51:25.046Z,95304.16
2023-03-27T20:53:56.131Z,95302.59
2023-03-27T20:56:23.316Z,95310.22
2023-03-27T20:58:51.981Z,95285.63
2023-03-27T21:01:27.959Z,95305.44
2023-03-27T21:03:58.680Z,95296.75
2023-03-27T21:06:26.260Z,95316.88
2023-03-27T21:08:52.893Z,95314.50
2023-03-27T21:11:19.695Z,95323.53
2023-03-27T21:13:46.662Z,95323.38
2023-03-27T21:16:13.349Z,95320.34
2023-03-27T21:18:40.503Z,95329.09
2023-03-27T21:21:07.661Z,95329.88
2023-03-27T21:23:35.391Z,95324.16
2023-03-27T21:26:02.324Z,95337.34
2023-03-27T21:28:29.192Z,95333.03
2023-03-27T21:30:56.432Z,95339.88
2023-03-27T21:33:23.279Z,95331.63
2023-03-27T21:35:51.755Z,95339.53
2023-03-27T21:38:19.051Z,95344.13
2023-03-27T21:40:47.434Z,95339.66
2023-03-27T21:43:14.760Z,95330.63
2023-03-27T21:45:41.483Z,95347.72
2023-03-27T21:48:10.791Z,95334.72
2023-03-27T21:50:37.862Z,95353.13
2023-03-27T21:53:04.477Z,95356.88
2023-03-27T21:55:31.336Z,95334.22
2023-03-27T21:57:58.028Z,95352.44
2023-03-27T22:00:24.807Z,95342.41
2023-03-27T22:02:52.064Z,95356.53
2023-03-27T22:05:19.295Z,95363.00
2023-03-27T22:07:46.755Z,95331.25
2023-03-27T22:10:21.082Z,95361.03
2023-03-27T22:12:47.703Z,95372.09
2023-03-27T22:15:14.492Z,95394.09
2023-03-27T22:17:41.309Z,95399.06
2023-03-27T22:20:08.532Z,95415.84
2023-03-27T22:22:35.876Z,95419.81
2023-03-27T22:25:02.739Z,95422.97
2023-03-27T22:27:29.846Z,95428.03
2023-03-27T22:29:56.792Z,95443.16
2023-03-27T22:32:23.736Z,95447.34
2023-03-27T22:34:50.431Z,95454.47
2023-03-27T22:37:17.457Z,95458.69
2023-03-27T22:39:44.537Z,95474.22
2023-03-27T22:42:11.372Z,95473.63
2023-03-27T22:44:38.181Z,95484.44
2023-03-27T22:47:04.980Z,95490.25
2023-03-27T22:49:31.658Z,95489.81
2023-03-27T22:51:58.453Z,95495.72
2023-03-27T22:54:26.218Z,95503.91
2023-03-27T22:56:55.278Z,95502.88
2023-03-27T22:59:22.334Z,95518.22
2023-03-27T23:01:49.132Z,95518.34
2023-03-27T23:04:15.819Z,95516.06
2023-03-27T23:06:42.554Z,95514.53
2023-03-27T23:09:10.194Z,95526.41
2023-03-27T23:11:37.021Z,95536.19
2023-03-27T23:14:04.027Z,95547.31
2023-03-27T23:16:30.901Z,95544.22
2023-03-27T23:18:57.580Z,95545.91
2023-03-27T23:21:24.701Z,95552.06
2023-03-27T23:23:51.497Z,95549.75
2023-03-27T23:26:18.285Z,95555.50
2023-03-27T23:28:45.720Z,95552.09
2023-03-27T23:31:15.791Z,95563.63
2023-03-27T23:33:45.191Z,95568.44
2023-03-27T23:36:18.121Z,95575.69
2023-03-27T23:38:45.280Z,95582.13
2023-03-27T23:41:14.145Z,95594.47
2023-03-27T23:43:41.569Z,95597.16
2023-03-27T23:46:10.472Z,95600.13
2023-03-27T23:48:39.186Z,95615.09
2023-03-27T23:51:07.197Z,95607.38
2023-03-27T23:53:35.198Z,95616.22
2023-03-27T23:56:02.142Z,95613.56
2023-03-27T23:58:32.678Z,95622.34
